Time;durP1;ratioP1;P1;durP2;ratioP2;P2;SDS_P1;SDS_P2;PMS_P1;PMS_P2;Temp;Humidity;BMP_temperature;BMP_pressure;BME280_temperature;BME280_humidity;BME280_pressure;Samples;Min_cycle;Max_cycle;Signal;HPM_P1;HPM_P2
2021/07/27 00:01:18;;;;;;;5.47;4.97;;;;;;;14.90;88.45;95548.25;5093613;28;20168;-77
2021/07/27 00:03:45;;;;;;;5.18;4.63;;;;;;;14.89;88.36;95541.38;5095845;28;20213;-77
2021/07/27 00:06:10;;;;;;;7.57;5.47;;;;;;;14.90;88.09;95542.19;5116108;28;20168;-77
2021/07/27 00:08:36;;;;;;;5.50;5.00;;;;;;;14.90;88.06;95543.00;5097660;28;20255;-77
2021/07/27 00:11:09;;;;;;;10.20;5.07;;;;;;;14.89;87.52;95538.78;5114580;28;20545;-77
2021/07/27 00:13:35;;;;;;;5.90;4.95;;;;;;;14.85;87.84;95537.50;5097491;28;20690;-77
2021/07/27 00:16:00;;;;;;;5.77;4.97;;;;;;;14.86;87.82;95533.91;5097580;28;20167;-77
2021/07/27 00:18:26;;;;;;;6.65;5.10;;;;;;;14.87;87.58;95532.91;5097492;28;20196;-77
2021/07/27 00:20:51;;;;;;;7.05;5.18;;;;;;;14.88;87.37;95520.66;5097557;28;20297;-77
2021/07/27 00:23:16;;;;;;;5.30;4.80;;;;;;;14.91;87.37;95523.72;5115530;28;20258;-77
2021/07/27 00:25:42;;;;;;;6.00;5.40;;;;;;;14.90;86.91;95523.91;5097344;28;20192;-77
2021/07/27 00:28:08;;;;;;;8.13;5.25;;;;;;;14.87;86.94;95517.22;5081937;28;20180;-77
2021/07/27 00:30:34;;;;;;;7.38;5.20;;;;;;;14.90;86.85;95516.06;5097249;28;20176;-77
2021/07/27 00:32:59;;;;;;;5.73;4.87;;;;;;;14.83;87.11;95509.88;5097138;28;20714;-77
2021/07/27 00:35:25;;;;;;;8.60;5.10;;;;;;;14.79;87.28;95513.84;5080255;28;20675;-77
2021/07/27 00:38:07;;;;;;;6.87;5.03;;;;;;;14.77;87.16;95521.88;5115375;28;20186;-77
2021/07/27 00:40:33;;;;;;;5.95;5.35;;;;;;;14.69;87.29;95514.91;5115131;28;20172;-77
2021/07/27 00:43:02;;;;;;;6.13;4.70;;;;;;;14.70;87.33;95518.31;5116022;27;20279;-77
2021/07/27 00:45:28;;;;;;;5.97;5.33;;;;;;;14.69;87.27;95516.69;5117357;27;20211;-76
2021/07/27 00:47:53;;;;;;;6.40;5.13;;;;;;;14.66;87.45;95514.41;5117170;27;20237;-77
2021/07/27 00:50:18;;;;;;;5.97;5.40;;;;;;;14.62;87.53;95519.19;5135884;27;20176;-77
2021/07/27 00:52:43;;;;;;;6.10;5.47;;;;;;;14.62;87.35;95513.16;5135083;27;20183;-75
2021/07/27 00:55:09;;;;;;;7.47;4.97;;;;;;;14.60;87.71;95513.31;5100255;27;20214;-77
2021/07/27 00:57:35;;;;;;;5.70;5.10;;;;;;;14.58;87.48;95517.91;5114194;27;20191;-77
2021/07/27 01:00:00;;;;;;;6.70;5.53;;;;;;;14.57;87.54;95523.28;5096850;28;20204;-77
2021/07/27 01:02:25;;;;;;;7.13;5.67;;;;;;;14.53;87.79;95535.91;5096631;28;20662;-77
2021/07/27 01:04:51;;;;;;;7.33;5.30;;;;;;;14.51;87.99;95532.66;5096734;28;20559;-77
2021/07/27 01:07:18;;;;;;;7.47;4.93;;;;;;;14.49;87.92;95526.78;5096291;28;20180;-77
2021/07/27 01:09:43;;;;;;;5.37;4.47;;;;;;;14.51;87.61;95531.84;5097175;28;20218;-77
2021/07/27 01:12:08;;;;;;;5.45;4.95;;;;;;;14.42;87.80;95531.03;5098864;28;20577;-77
2021/07/27 01:14:34;;;;;;;9.90;5.70;;;;;;;14.39;88.06;95528.75;5104825;28;20206;-77
2021/07/27 01:16:59;;;;;;;9.85;4.88;;;;;;;14.37;88.31;95521.09;5124486;28;20179;-77
2021/07/27 01:40:56;;;;;;;7.73;5.50;;;;;;;14.31;87.76;95513.97;5096686;28;20176;-77
2021/07/27 01:43:28;;;;;;;7.20;5.53;;;;;;;14.31;87.87;95513.97;5097120;28;20177;-76
2021/07/27 01:45:53;;;;;;;6.47;5.77;;;;;;;14.35;87.83;95519.66;5097260;28;20196;-77
2021/07/27 01:48:19;;;;;;;6.90;6.13;;;;;;;14.39;88.09;95519.13;5096017;28;20225;-77
2021/07/27 01:50:44;;;;;;;6.82;5.82;;;;;;;14.37;88.02;95515.88;5113800;28;20583;-76
2021/07/27 01:53:10;;;;;;;6.00;5.40;;;;;;;14.38;88.18;95516.69;5078825;28;20172;-76
2021/07/27 01:55:35;;;;;;;6.67;5.83;;;;;;;14.34;88.33;95513.59;5095399;28;20207;-76
2021/07/27 01:58:01;;;;;;;6.30;5.60;;;;;;;14.35;88.37;95507.41;5095548;28;20668;-76
2021/07/27 02:00:26;;;;;;;9.40;6.10;;;;;;;14.34;88.60;95503.16;5095356;28;20700;-75
2021/07/27 02:02:51;;;;;;;7.00;5.80;;;;;;;14.37;88.56;95510.63;5095155;28;20554;-76
2021/07/27 02:05:17;;;;;;;9.10;5.70;;;;;;;14.43;88.31;95514.38;5113564;28;20234;-75
2021/07/27 02:07:49;;;;;;;6.63;5.97;;;;;;;14.44;88.02;95514.19;5113727;28;20579;-76
2021/07/27 02:10:16;;;;;;;7.73;6.23;;;;;;;14.49;88.11;95513.72;5113489;28;20247;-76
2021/07/27 02:12:50;;;;;;;9.10;5.83;;;;;;;14.55;87.93;95515.63;5095390;28;20214;-76
2021/07/27 02:15:16;;;;;;;7.73;5.77;;;;;;;14.53;87.89;95517.59;5096503;28;20738;-75
2021/07/27 02:17:42;;;;;;;7.37;5.70;;;;;;;14.54;87.65;95516.63;5094919;28;20249;-76
2021/07/27 02:20:07;;;;;;;6.27;5.70;;;;;;;14.58;87.87;95519.72;5094996;28;20215;-76
2021/07/27 02:22:33;;;;;;;7.73;5.73;;;;;;;14.58;87.76;95517.09;5094781;28;20191;-76
2021/07/27 02:24:58;;;;;;;9.83;6.50;;;;;;;14.60;87.52;95510.72;5095090;28;20195;-75
2021/07/27 02:27:24;;;;;;;6.17;5.57;;;;;;;14.62;87.72;95518.38;5094809;28;20190;-77
2021/07/27 02:29:50;;;;;;;6.65;5.85;;;;;;;14.59;87.82;95511.69;5078125;28;20726;-76
2021/07/27 02:32:15;;;;;;;7.00;5.80;;;;;;;14.62;87.53;95516.56;5112935;28;20176;-75
2021/07/27 02:34:40;;;;;;;8.00;5.70;;;;;;;14.70;87.17;95515.72;5094741;28;20211;-77
2021/07/27 02:37:06;;;;;;;7.93;5.47;;;;;;;14.77;86.95;95519.25;5113186;28;20179;-77
2021/07/27 02:39:31;;;;;;;6.35;5.60;;;;;;;14.72;86.76;95524.19;5113069;28;20200;-76
2021/07/27 02:41:56;;;;;;;6.30;5.70;;;;;;;14.69;86.84;95522.75;5112730;28;20267;-77
2021/07/27 02:44:22;;;;;;;5.85;5.18;;;;;;;14.64;87.27;95525.03;5113028;28;20206;-76
2021/07/27 02:46:47;;;;;;;6.27;4.97;;;;;;;14.61;87.48;95530.63;5112796;28;20176;-75
2021/07/27 02:49:12;;;;;;;8.17;5.43;;;;;;;14.61;88.16;95527.22;5112980;28;20180;-76
2021/07/27 02:51:38;;;;;;;5.80;5.30;;;;;;;14.59;88.24;95523.97;5112570;28;20176;-76
2021/07/27 02:54:03;;;;;;;6.13;5.50;;;;;;;14.56;87.94;95522.47;5094464;28;20196;-77
2021/07/27 02:56:28;;;;;;;7.17;5.53;;;;;;;14.56;88.16;95524.28;5094628;28;20567;-75
2021/07/27 02:58:53;;;;;;;7.97;4.83;;;;;;;14.57;88.24;95523.28;5094623;28;20200;-75
2021/07/27 03:01:19;;;;;;;5.27;4.50;;;;;;;14.57;88.01;95524.09;5094361;28;20241;-77
2021/07/27 03:03:48;;;;;;;6.37;4.60;;;;;;;14.61;87.83;95527.22;5113023;28;20586;-76
2021/07/27 03:06:16;;;;;;;5.50;4.73;;;;;;;14.59;87.80;95532.59;5077744;28;20450;-76
2021/07/27 03:11:13;;;;;;;5.93;4.97;;;;;;;14.66;87.36;95537.94;5095136;28;20625;-76
2021/07/27 03:13:41;;;;;;;6.47;4.77;;;;;;;14.64;87.43;95535.50;5077171;28;20178;-76
2021/07/27 03:16:07;;;;;;;6.65;4.97;;;;;;;14.65;87.01;95538.94;5094400;28;20193;-76
2021/07/27 03:18:32;;;;;;;6.35;5.28;;;;;;;14.64;87.33;95537.31;5112357;28;20741;-76
2021/07/27 03:20:58;;;;;;;7.23;4.90;;;;;;;14.60;87.03;95541.25;5094152;28;20180;-77
2021/07/27 03:23:27;;;;;;;5.27;4.40;;;;;;;14.58;87.51;95559.72;5094130;28;20248;-76
2021/07/27 03:25:52;;;;;;;4.73;4.33;;;;;;;14.61;87.32;95550.72;5094082;28;20208;-76
2021/07/27 03:28:17;;;;;;;5.27;4.43;;;;;;;14.56;87.30;95555.63;5112403;28;20188;-76
2021/07/27 03:30:43;;;;;;;5.90;5.30;;;;;;;14.53;87.47;95556.81;5094192;28;20252;-76
2021/07/27 03:33:08;;;;;;;7.27;4.97;;;;;;;14.48;87.63;95547.84;5093944;28;20178;-75
2021/07/27 03:35:34;;;;;;;6.50;5.13;;;;;;;14.43;87.79;95549.16;5077206;28;20223;-76
2021/07/27 03:37:59;;;;;;;5.37;4.87;;;;;;;14.42;87.55;95550.16;5113180;28;20179;-76
2021/07/27 03:40:24;;;;;;;5.70;5.10;;;;;;;14.39;87.50;95547.03;5098224;28;20523;-77
2021/07/27 03:42:49;;;;;;;6.70;5.17;;;;;;;14.38;87.77;95545.41;5081170;28;20236;-76
2021/07/27 03:45:15;;;;;;;6.53;5.37;;;;;;;14.33;87.88;95545.13;5116388;28;20220;-75
2021/07/27 03:47:40;;;;;;;5.78;5.00;;;;;;;14.31;87.89;95547.91;5098199;28;20175;-76
2021/07/27 03:50:07;;;;;;;9.00;5.93;;;;;;;14.27;87.53;95546.63;5116217;28;20179;-76
2021/07/27 03:52:33;;;;;;;6.17;5.30;;;;;;;14.27;87.86;95544.00;5097717;28;20254;-76
2021/07/27 03:54:58;;;;;;;6.13;5.50;;;;;;;14.25;87.82;95542.56;5097944;28;20242;-77
2021/07/27 03:57:24;;;;;;;6.37;5.67;;;;;;;14.24;87.77;95528.69;5080965;28;20613;-76
2021/07/27 03:59:49;;;;;;;7.13;5.10;;;;;;;14.28;87.62;95536.97;5116183;28;20208;-77
2021/07/27 04:02:14;;;;;;;7.00;5.27;;;;;;;14.25;87.51;95527.69;5097892;28;20670;-76
2021/07/27 04:04:40;;;;;;;6.07;5.43;;;;;;;14.29;87.19;95521.13;5097836;28;20682;-76
2021/07/27 04:07:06;;;;;;;6.87;6.10;;;;;;;14.27;87.39;95520.50;5080817;28;20187;-77
2021/07/27 04:09:32;;;;;;;6.83;6.07;;;;;;;14.29;87.25;95530.75;5097721;28;20259;-76
2021/07/27 04:11:57;;;;;;;7.83;5.93;;;;;;;14.26;87.05;95523.28;5080547;28;20728;-77
2021/07/27 04:14:23;;;;;;;7.00;5.40;;;;;;;14.36;86.95;95518.66;5115922;28;20203;-77
2021/07/27 04:16:48;;;;;;;7.10;6.40;;;;;;;14.45;86.44;95517.66;5080514;28;20172;-77
2021/07/27 04:19:13;;;;;;;6.20;5.60;;;;;;;14.60;85.92;95515.94;5097568;28;20686;-77
2021/07/27 04:21:42;;;;;;;6.47;5.87;;;;;;;14.66;85.21;95517.03;5097416;28;20196;-77
2021/07/27 04:24:08;;;;;;;7.00;6.07;;;;;;;14.68;84.60;95517.69;5097466;28;20199;-77
2021/07/27 04:26:33;;;;;;;6.63;5.87;;;;;;;14.71;84.52;95512.09;5097298;28;20188;-77
2021/07/27 04:28:59;;;;;;;6.47;5.83;;;;;;;14.67;84.65;95510.84;5115682;28;20631;-77
2021/07/27 04:31:24;;;;;;;7.03;6.20;;;;;;;14.72;84.42;95511.13;5079968;28;20176;-77
2021/07/27 04:33:49;;;;;;;7.90;5.60;;;;;;;14.76;84.29;95509.78;5115823;28;20657;-76
2021/07/27 04:36:15;;;;;;;8.20;6.40;;;;;;;14.85;83.72;95513.97;5097374;28;20180;-76
2021/07/27 04:38:40;;;;;;;6.60;6.00;;;;;;;15.04;83.13;95506.66;5097190;28;20214;-77
2021/07/27 04:41:05;;;;;;;7.10;5.40;;;;;;;15.15;82.54;95511.44;5080374;28;20176;-77
2021/07/27 04:43:31;;;;;;;7.07;6.23;;;;;;;15.19;82.53;95512.72;5115275;28;20202;-77
2021/07/27 04:46:04;;;;;;;6.33;5.03;;;;;;;15.49;82.27;95518.84;5080157;28;20207;-77
2021/07/27 04:48:29;;;;;;;5.80;4.70;;;;;;;16.92;78.30;95524.47;5096967;28;20175;-76
2021/07/27 04:50:55;;;;;;;5.35;4.45;;;;;;;18.30;71.90;95518.63;5096750;28;20176;-78
2021/07/27 04:53:23;;;;;;;4.82;3.85;;;;;;;19.49;65.58;95514.41;5096911;28;20164;-77
2021/07/27 04:55:49;;;;;;;7.03;4.22;;;;;;;20.02;63.45;95519.63;5080306;28;20211;-77
2021/07/27 04:58:14;;;;;;;5.63;4.03;;;;;;;20.78;59.45;95518.13;5097208;28;20175;-78
2021/07/27 05:00:39;;;;;;;4.13;3.50;;;;;;;21.52;57.31;95524.56;5080262;28;20175;-76
2021/07/27 05:03:05;;;;;;;6.70;4.00;;;;;;;22.27;53.07;95526.09;5114939;28;20657;-76
2021/07/27 05:05:30;;;;;;;4.22;3.75;;;;;;;22.56;53.21;95527.16;5096883;28;20200;-77
2021/07/27 05:07:58;;;;;;;3.65;3.17;;;;;;;23.42;50.94;95519.88;5080246;28;20176;-77
2021/07/27 05:10:23;;;;;;;5.07;3.88;;;;;;;24.21;48.61;95520.38;5096679;28;20193;-77
2021/07/27 05:12:48;;;;;;;4.15;3.75;;;;;;;23.22;49.82;95514.88;5096720;28;20634;-76
2021/07/27 05:15:14;;;;;;;4.25;3.90;;;;;;;23.10;49.64;95511.41;5093144;27;20192;-76
2021/07/27 05:17:39;;;;;;;3.42;3.13;;;;;;;23.45;50.00;95520.22;5112497;27;20206;-78
2021/07/27 05:20:06;;;;;;;4.65;3.70;;;;;;;24.06;48.23;95522.69;5116033;27;20199;-76
2021/07/27 05:22:35;;;;;;;3.88;3.58;;;;;;;24.34;47.39;95521.97;5095881;28;20207;-78
2021/07/27 05:25:00;;;;;;;5.15;4.00;;;;;;;24.02;48.82;95524.97;5114449;28;20546;-75
2021/07/27 05:27:26;;;;;;;3.65;3.35;;;;;;;24.43;47.26;95517.91;5108258;27;20175;-77
2021/07/27 05:29:53;;;;;;;3.47;3.17;;;;;;;24.53;46.87;95502.19;5098459;27;20167;-77
2021/07/27 05:32:19;;;;;;;4.30;3.70;;;;;;;24.54;47.33;95504.59;5098924;27;20182;-77
2021/07/27 05:34:44;;;;;;;3.50;3.13;;;;;;;24.67;46.50;95508.84;5116042;27;20195;-77
2021/07/27 05:37:09;;;;;;;3.85;3.45;;;;;;;24.40;46.25;95507.78;5136377;27;20179;-77
2021/07/27 05:39:35;;;;;;;4.28;3.20;;;;;;;24.71;46.90;95507.31;5136599;27;20201;-76
2021/07/27 05:42:00;;;;;;;5.05;3.25;;;;;;;24.45;47.42;95506.03;5119155;27;20170;-77
2021/07/27 05:44:26;;;;;;;3.22;3.03;;;;;;;25.16;44.86;95505.75;5119065;27;20289;-77
2021/07/27 05:46:55;;;;;;;4.32;3.20;;;;;;;25.07;46.24;95516.78;5133710;27;20262;-77
2021/07/27 05:49:21;;;;;;;5.20;3.60;;;;;;;25.93;44.74;95504.09;5135614;27;20158;-76
2021/07/27 05:51:50;;;;;;;3.30;3.00;;;;;;;26.73;43.37;95513.38;5148617;27;20173;-75
2021/07/27 05:54:18;;;;;;;3.95;3.50;;;;;;;26.67;42.24;95508.22;5118572;27;20195;-77
2021/07/27 05:56:44;;;;;;;3.80;3.33;;;;;;;26.98;42.99;95506.72;5113832;27;20224;-77
2021/07/27 05:59:09;;;;;;;4.20;3.40;;;;;;;27.06;41.38;95511.63;5115369;27;20271;-76
2021/07/27 06:01:35;;;;;;;4.53;3.30;;;;;;;25.88;43.58;95516.50;5132915;27;20175;-75
2021/07/27 06:04:00;;;;;;;3.65;3.20;;;;;;;26.03;44.11;95519.38;5116182;27;20187;-77
2021/07/27 06:06:28;;;;;;;4.72;3.30;;;;;;;24.82;47.35;95514.44;5115704;27;20644;-77
2021/07/27 06:08:53;;;;;;;4.18;3.33;;;;;;;22.74;51.99;95512.28;5115519;27;20254;-77
2021/07/27 06:11:19;;;;;;;5.18;3.70;;;;;;;22.61;53.47;95513.25;5115398;27;20587;-76
2021/07/27 06:13:44;;;;;;;3.55;3.25;;;;;;;22.82;51.94;95515.44;5114605;27;20183;-76
2021/07/27 06:16:09;;;;;;;4.03;3.42;;;;;;;21.94;55.32;95515.81;5135803;27;20219;-75
2021/07/27 06:18:34;;;;;;;4.65;3.75;;;;;;;21.38;57.85;95515.91;5141243;27;20227;-76
2021/07/27 06:21:00;;;;;;;7.30;4.25;;;;;;;21.07;58.85;95512.25;5118784;27;20643;-75
2021/07/27 06:23:26;;;;;;;4.72;3.50;;;;;;;20.83;60.43;95510.38;5115233;27;20171;-76
2021/07/27 06:25:51;;;;;;;4.95;3.88;;;;;;;20.52;60.93;95504.06;5114879;27;20670;-75
2021/07/27 06:28:17;;;;;;;4.68;3.60;;;;;;;20.30;61.49;95513.25;5115171;27;20246;-76
2021/07/27 06:30:42;;;;;;;5.00;3.70;;;;;;;20.65;61.04;95509.25;5115003;27;20198;-75
2021/07/27 06:33:07;;;;;;;5.43;3.83;;;;;;;20.67;60.81;95514.31;5133131;27;20171;-75
2021/07/27 06:35:33;;;;;;;4.40;3.97;;;;;;;20.76;60.49;95514.88;5115512;27;20198;-76
2021/07/27 06:37:58;;;;;;;4.40;4.00;;;;;;;20.59;61.03;95514.59;5097113;27;20171;-75
2021/07/27 06:40:23;;;;;;;4.40;3.88;;;;;;;20.02;63.25;95521.44;5097719;27;20641;-76
2021/07/27 06:42:49;;;;;;;6.00;3.78;;;;;;;20.83;61.17;95520.94;5114340;27;20571;-76
2021/07/27 06:45:14;;;;;;;4.20;3.80;;;;;;;21.57;59.08;95512.31;5097260;27;20206;-75
2021/07/27 06:47:39;;;;;;;6.78;4.13;;;;;;;21.64;57.75;95518.34;5132924;27;20178;-76
2021/07/27 06:50:05;;;;;;;6.68;3.85;;;;;;;21.40;58.91;95521.81;5133002;27;20167;-76
2021/07/27 06:52:31;;;;;;;6.25;3.70;;;;;;;20.94;60.61;95520.28;5133458;27;20219;-76
2021/07/27 06:54:56;;;;;;;4.47;4.07;;;;;;;21.85;57.70;95519.78;5132994;27;20214;-77
2021/07/27 06:57:22;;;;;;;6.68;3.83;;;;;;;22.64;55.63;95526.06;5133067;27;20229;-75
2021/07/27 06:59:47;;;;;;;6.05;3.80;;;;;;;23.64;52.68;95533.41;5122198;27;20199;-76
2021/07/27 07:02:12;;;;;;;3.88;3.50;;;;;;;24.46;49.10;95531.53;5132307;27;20245;-76
2021/07/27 07:04:38;;;;;;;4.72;3.78;;;;;;;24.86;47.96;95536.03;5128625;27;20205;-75
2021/07/27 07:07:06;;;;;;;4.72;4.25;;;;;;;24.89;47.71;95542.69;5132990;27;20170;-75
2021/07/27 07:09:31;;;;;;;6.93;4.00;;;;;;;23.22;51.27;95538.72;5127698;27;20171;-75
2021/07/27 07:11:56;;;;;;;5.20;4.70;;;;;;;22.81;53.48;95540.28;5133424;27;20244;-75
2021/07/27 07:14:22;;;;;;;4.40;4.05;;;;;;;23.35;51.95;95545.66;5113864;27;20228;-75
2021/07/27 07:16:48;;;;;;;4.47;4.07;;;;;;;24.26;48.53;95547.00;5130650;27;20175;-74
2021/07/27 07:19:13;;;;;;;4.10;3.80;;;;;;;24.73;48.24;95553.03;5130482;27;20183;-75
2021/07/27 07:21:39;;;;;;;5.45;3.90;;;;;;;26.09;44.03;95549.53;5152101;27;20249;-75
2021/07/27 07:24:04;;;;;;;4.72;4.32;;;;;;;26.60;42.12;95543.06;5132880;27;20191;-74
2021/07/27 07:26:30;;;;;;;4.50;4.10;;;;;;;26.60;42.77;95550.25;5115230;28;20229;-76
2021/07/27 07:28:55;;;;;;;4.30;4.00;;;;;;;26.22;43.58;95541.19;5120090;27;20477;-76
2021/07/27 07:31:20;;;;;;;4.70;4.30;;;;;;;25.90;44.15;95544.50;5100125;28;20184;-76
2021/07/27 07:33:46;;;;;;;4.40;4.00;;;;;;;27.30;40.10;95547.59;5109320;27;20187;-76
2021/07/27 07:36:12;;;;;;;4.78;4.38;;;;;;;27.63;39.47;95548.38;5126985;27;20203;-76
2021/07/27 07:38:39;;;;;;;5.43;4.80;;;;;;;27.02;41.71;95548.59;5109195;27;20198;-75
2021/07/27 07:41:09;;;;;;;6.07;4.28;;;;;;;27.07;40.92;95548.69;5113756;27;20625;-76
2021/07/27 07:43:35;;;;;;;4.78;4.32;;;;;;;27.21;41.57;95556.25;5123175;28;20174;-76
2021/07/27 07:46:00;;;;;;;5.53;4.13;;;;;;;26.37;43.85;95556.56;5110121;28;20199;-75
2021/07/27 07:48:26;;;;;;;4.47;4.07;;;;;;;26.18;44.89;95548.06;5111909;28;20259;-75
2021/07/27 07:50:51;;;;;;;5.93;4.30;;;;;;;25.90;44.79;95552.47;5095110;28;20352;-74
2021/07/27 07:53:16;;;;;;;4.93;4.43;;;;;;;24.82;48.58;95553.47;5111699;28;20252;-76
2021/07/27 07:55:42;;;;;;;5.45;4.55;;;;;;;24.08;51.17;95550.59;5130095;28;20203;-76
2021/07/27 07:58:07;;;;;;;5.63;5.05;;;;;;;24.48;49.55;95545.38;5128027;27;20191;-77
2021/07/27 08:00:32;;;;;;;5.03;4.50;;;;;;;24.61;49.05;95546.16;5101241;28;20308;-77
2021/07/27 08:03:01;;;;;;;4.97;4.13;;;;;;;24.27;50.38;95556.56;5131345;28;20235;-76
2021/07/27 08:05:27;;;;;;;5.50;4.85;;;;;;;23.42;53.55;95555.13;5111509;28;20290;-77
2021/07/27 08:07:52;;;;;;;5.20;4.70;;;;;;;23.13;53.79;95558.59;5111329;28;20262;-76
2021/07/27 08:10:17;;;;;;;6.00;4.82;;;;;;;23.27;51.42;95561.88;5132195;28;20182;-76
2021/07/27 08:12:44;;;;;;;5.45;4.95;;;;;;;22.61;52.17;95560.88;5113508;28;20163;-76
2021/07/27 08:15:09;;;;;;;7.28;4.82;;;;;;;23.48;52.36;95550.75;5113951;28;20330;-77
2021/07/27 08:17:35;;;;;;;7.72;4.97;;;;;;;23.35;53.75;95557.06;5114047;28;20207;-76
2021/07/27 08:20:01;;;;;;;5.72;5.18;;;;;;;23.04;53.57;95560.75;5096554;28;20199;-77
2021/07/27 08:22:27;;;;;;;5.90;5.18;;;;;;;23.00;53.08;95553.50;5096808;28;20181;-77
2021/07/27 08:24:53;;;;;;;6.10;5.55;;;;;;;22.79;54.95;95568.00;5134197;27;20294;-77
2021/07/27 08:27:18;;;;;;;6.15;5.55;;;;;;;22.99;53.64;95558.00;5100248;27;20549;-75
2021/07/27 08:29:43;;;;;;;6.15;4.88;;;;;;;23.71;52.17;95557.97;5135892;27;20227;-77
2021/07/27 08:32:09;;;;;;;7.25;4.90;;;;;;;23.93;51.98;95564.31;5117262;27;20179;-77
2021/07/27 08:34:39;;;;;;;6.22;5.05;;;;;;;23.01;50.99;95561.22;5117400;27;20183;-77
2021/07/27 08:37:04;;;;;;;6.35;4.85;;;;;;;22.34;54.63;95569.13;5100243;27;20677;-77
2021/07/27 08:39:30;;;;;;;7.50;6.10;;;;;;;22.20;55.06;95567.66;5100011;27;20231;-77
2021/07/27 08:41:59;;;;;;;6.18;5.35;;;;;;;21.90;55.64;95564.88;5099740;27;20194;-77
2021/07/27 08:44:27;;;;;;;7.43;5.28;;;;;;;21.87;55.41;95567.16;5117159;27;20693;-75
2021/07/27 08:46:53;;;;;;;8.95;6.25;;;;;;;21.41;56.34;95565.69;5100214;27;20167;-76
2021/07/27 08:49:18;;;;;;;7.10;5.07;;;;;;;21.80;54.77;95561.91;5116669;27;20223;-76
2021/07/27 08:51:44;;;;;;;5.82;5.32;;;;;;;21.47;56.61;95564.84;5116865;27;20224;-77
2021/07/27 08:54:09;;;;;;;6.22;5.57;;;;;;;21.20;57.84;95566.81;5116777;27;20673;-77
2021/07/27 08:56:43;;;;;;;8.35;5.85;;;;;;;21.07;56.59;95565.06;5116687;27;20182;-77
2021/07/27 08:59:10;;;;;;;7.38;6.05;;;;;;;21.42;56.46;95562.84;5117047;27;20202;-77
2021/07/27 09:01:38;;;;;;;6.10;5.45;;;;;;;21.88;56.59;95558.19;5116771;27;20175;-77
2021/07/27 09:04:03;;;;;;;7.88;5.82;;;;;;;21.91;56.89;95555.09;5116767;27;20333;-77
2021/07/27 09:06:29;;;;;;;6.93;5.15;;;;;;;21.94;56.06;95560.78;5116703;27;20254;-77
2021/07/27 09:09:08;;;;;;;6.20;5.60;;;;;;;21.48;56.26;95554.06;5135304;27;20267;-77
2021/07/27 09:11:46;;;;;;;8.15;6.35;;;;;;;21.36;57.94;95558.41;5121412;27;20235;-76
2021/07/27 09:14:20;;;;;;;7.90;5.45;;;;;;;21.27;57.76;95554.41;5118210;27;20191;-76
2021/07/27 09:16:47;;;;;;;6.15;5.55;;;;;;;21.18;56.86;95559.09;5099769;27;20659;-77
2021/07/27 09:19:12;;;;;;;6.65;5.93;;;;;;;21.29;57.38;95559.47;5116342;27;20244;-77
2021/07/27 09:21:41;;;;;;;6.18;5.57;;;;;;;21.53;57.16;95561.31;5116268;27;20175;-77
2021/07/27 09:24:07;;;;;;;8.02;5.68;;;;;;;21.98;55.30;95558.50;5100125;27;20195;-78
2021/07/27 09:26:32;;;;;;;7.05;6.20;;;;;;;22.17;54.73;95559.34;5116912;27;20167;-78
2021/07/27 09:29:02;;;;;;;9.27;6.03;;;;;;;22.27;54.66;95564.97;5134838;27;20243;-76
2021/07/27 09:31:28;;;;;;;7.07;5.60;;;;;;;22.03;54.32;95562.09;5116281;27;20252;-77
2021/07/27 09:33:53;;;;;;;5.97;5.45;;;;;;;22.34;53.89;95555.09;5098944;27;20449;-77
2021/07/27 09:36:24;;;;;;;10.05;6.45;;;;;;;22.35;54.81;95562.00;5115388;27;20654;-77
2021/07/27 09:39:03;;;;;;;6.78;5.50;;;;;;;22.71;53.61;95553.25;5116223;27;20686;-77
2021/07/27 09:41:29;;;;;;;7.70;6.10;;;;;;;22.52;53.97;95556.94;5134618;27;20202;-76
2021/07/27 09:43:58;;;;;;;5.97;5.47;;;;;;;22.47;53.87;95562.91;5116558;27;20221;-77
2021/07/27 09:46:27;;;;;;;6.38;5.78;;;;;;;22.50;53.64;95557.16;5099174;27;20231;-79
2021/07/27 09:48:52;;;;;;;6.60;6.00;;;;;;;21.93;55.12;95559.16;5112812;27;20175;-76
2021/07/27 09:51:18;;;;;;;6.20;5.55;;;;;;;21.79;55.42;95562.94;5116369;27;20182;-77
2021/07/27 09:53:45;;;;;;;8.15;6.03;;;;;;;21.37;56.54;95554.72;5134843;27;20174;-77
2021/07/27 09:56:10;;;;;;;6.35;5.75;;;;;;;21.90;56.40;95558.75;5117733;27;20281;-77
2021/07/27 09:58:36;;;;;;;7.40;6.70;;;;;;;21.93;56.19;95551.22;5098805;27;20385;-77
2021/07/27 10:01:05;;;;;;;7.90;6.03;;;;;;;21.99;56.25;95549.53;5115717;27;20592;-76
2021/07/27 10:03:34;;;;;;;6.72;6.03;;;;;;;21.85;55.99;95546.22;5115626;27;20187;-76
2021/07/27 10:06:01;;;;;;;8.52;5.82;;;;;;;22.30;54.93;95561.88;5115757;27;20195;-77
2021/07/27 10:08:33;;;;;;;6.85;5.85;;;;;;;22.55;54.31;95556.50;5115836;27;20266;-76
2021/07/27 10:11:14;;;;;;;8.00;6.57;;;;;;;22.69;53.49;95552.63;5098310;27;20554;-76
2021/07/27 10:13:45;;;;;;;7.13;6.13;;;;;;;22.79;53.28;95547.66;5116809;27;20178;-78
2021/07/27 10:16:25;;;;;;;7.15;5.90;;;;;;;23.65;52.24;95553.56;5118353;27;20818;-76
2021/07/27 10:18:52;;;;;;;6.38;5.78;;;;;;;23.22;51.10;95561.75;5115524;27;20649;-76
2021/07/27 10:21:23;;;;;;;6.93;6.32;;;;;;;22.69;52.52;95551.84;5114661;27;20600;-76
2021/07/27 10:24:09;;;;;;;9.20;6.47;;;;;;;22.97;51.55;95546.00;5133541;27;20182;-76
2021/07/27 10:26:34;;;;;;;7.63;5.85;;;;;;;23.07;51.34;95551.59;5133452;27;20175;-76
2021/07/27 10:29:00;;;;;;;7.05;5.82;;;;;;;22.76;52.38;95545.44;5097960;27;20167;-76
2021/07/27 10:31:35;;;;;;;7.65;6.25;;;;;;;23.17;51.26;95550.00;5097631;27;20639;-76
2021/07/27 10:34:03;;;;;;;6.57;5.97;;;;;;;23.19;51.50;95557.72;5097628;27;20202;-76
2021/07/27 10:36:34;;;;;;;6.03;5.50;;;;;;;23.33;51.79;95550.41;5115105;27;20206;-76
2021/07/27 10:39:08;;;;;;;6.03;5.53;;;;;;;22.92;51.55;95551.97;5115209;27;20195;-76
2021/07/27 10:41:35;;;;;;;6.85;5.95;;;;;;;22.79;51.16;95542.34;5114537;27;20178;-76
2021/07/27 10:44:08;;;;;;;6.70;6.00;;;;;;;22.61;52.42;95547.66;5114712;27;20194;-76
2021/07/27 10:46:39;;;;;;;6.63;5.88;;;;;;;22.30;53.65;95560.03;5097828;27;20305;-77
2021/07/27 10:49:05;;;;;;;8.63;6.47;;;;;;;22.15;53.32;95561.41;5115401;27;20531;-77
2021/07/27 10:51:36;;;;;;;6.60;5.90;;;;;;;21.88;55.43;95555.53;5114975;27;20177;-78
2021/07/27 10:54:01;;;;;;;7.43;5.80;;;;;;;22.04;54.56;95560.28;5098599;27;20774;-78
2021/07/27 10:56:31;;;;;;;5.90;5.40;;;;;;;21.92;55.59;95551.44;5115388;27;20183;-77
2021/07/27 10:58:57;;;;;;;7.03;6.32;;;;;;;21.88;55.03;95550.25;5115066;27;20617;-76
2021/07/27 11:01:28;;;;;;;7.45;5.90;;;;;;;21.64;55.12;95555.31;5115158;27;20296;-77
2021/07/27 11:03:54;;;;;;;6.97;6.07;;;;;;;21.49;55.80;95553.03;5115289;27;20171;-78
2021/07/27 11:06:20;;;;;;;7.32;6.30;;;;;;;21.46;56.87;95552.63;5133251;27;20664;-77
2021/07/27 11:08:45;;;;;;;7.90;7.10;;;;;;;21.57;56.04;95557.25;5114615;27;20166;-78
2021/07/27 11:11:12;;;;;;;6.90;6.30;;;;;;;21.49;57.20;95555.66;5115016;27;20175;-76
2021/07/27 11:13:38;;;;;;;6.97;6.28;;;;;;;21.16;58.49;95552.41;5116880;27;20243;-78
2021/07/27 11:16:04;;;;;;;7.03;6.32;;;;;;;21.14;58.69;95539.44;5114854;27;20254;-77
2021/07/27 11:18:30;;;;;;;7.80;6.90;;;;;;;21.09;59.36;95541.88;5133316;27;20576;-78
2021/07/27 11:20:56;;;;;;;7.20;6.10;;;;;;;20.99;59.50;95546.84;5115224;27;20167;-79
2021/07/27 11:23:22;;;;;;;7.45;6.10;;;;;;;20.73;60.88;95539.88;5097345;27;20311;-79
2021/07/27 11:25:56;;;;;;;7.47;6.47;;;;;;;20.62;64.47;95538.72;5097700;27;20202;-79
2021/07/27 11:28:21;;;;;;;8.63;6.90;;;;;;;20.59;65.75;95533.84;5098748;28;20200;-79
2021/07/27 11:30:47;;;;;;;8.18;7.38;;;;;;;20.45;66.31;95534.13;5115441;28;20258;-79
2021/07/27 11:33:13;;;;;;;8.60;6.90;;;;;;;20.45;64.99;95513.81;5115121;28;20182;-79
2021/07/27 11:35:46;;;;;;;7.22;6.53;;;;;;;20.76;64.05;95515.72;5115277;28;20191;-79
2021/07/27 11:38:22;;;;;;;7.93;7.18;;;;;;;21.01;64.61;95518.38;5133087;28;20262;-78
2021/07/27 11:40:49;;;;;;;8.13;6.90;;;;;;;21.09;63.65;95523.41;5115558;28;20197;-78
2021/07/27 11:43:14;;;;;;;7.90;7.10;;;;;;;21.21;63.50;95513.00;5097762;28;20184;-78
2021/07/27 11:45:41;;;;;;;7.78;6.95;;;;;;;21.39;61.28;95514.91;5097686;28;20195;-77
2021/07/27 11:48:07;;;;;;;7.30;6.45;;;;;;;21.69;59.87;95502.66;5114127;28;20179;-78
2021/07/27 11:50:34;;;;;;;9.90;6.70;;;;;;;21.64;60.12;95513.03;5114598;28;20611;-78
2021/07/27 11:53:05;;;;;;;6.65;6.05;;;;;;;21.69;57.97;95505.28;5113798;28;20167;-77
2021/07/27 11:55:35;;;;;;;7.32;6.60;;;;;;;22.11;59.73;95508.16;5097299;28;20198;-79